createdAt,value
2022-10-11T00:00:29.567Z,12.60
2022-10-11T00:04:32.729Z,12.60
2022-10-11T00:08:38.412Z,12.60
2022-10-11T00:12:43.342Z,12.60
2022-10-11T00:16:55.066Z,12.50
2022-10-11T00:25:23.355Z,12.50
2022-10-11T00:29:31.291Z,12.50
2022-10-11T00:33:33.720Z,12.50
2022-10-11T00:37:40.642Z,12.50
2022-10-11T00:41:44.866Z,12.40
2022-10-11T00:46:00.765Z,12.40
2022-10-11T00:50:03.682Z,12.40
2022-10-11T00:54:08.980Z,12.40
2022-10-11T00:58:14.468Z,12.40
2022-10-11T01:02:20.197Z,12.40
2022-10-11T01:06:23.915Z,12.40
2022-10-11T01:10:27.638Z,12.40
2022-10-11T01:14:42.114Z,12.40
2022-10-11T01:19:27.681Z,12.40
2022-10-11T01:23:39.195Z,12.40
2022-10-11T01:28:09.498Z,12.30
2022-10-11T01:32:20.686Z,12.30
2022-10-11T01:36:32.464Z,12.30
2022-10-11T01:40:52.882Z,12.30
2022-10-11T01:44:58.375Z,12.20
2022-10-11T01:49:08.074Z,12.20
2022-10-11T01:53:41.690Z,12.20
2022-10-11T01:58:34.243Z,12.10
2022-10-11T02:03:03.559Z,12.00
2022-10-11T02:07:39.792Z,11.90
2022-10-11T02:11:44.805Z,11.90
2022-10-11T02:15:49.564Z,11.80
2022-10-11T02:19:55.936Z,11.80
2022-10-11T02:24:06.077Z,11.70
2022-10-11T02:28:13.870Z,11.60
2022-10-11T02:32:20.789Z,11.60
2022-10-11T02:36:33.623Z,11.50
2022-10-11T02:40:45.669Z,11.40
2022-10-11T02:45:00.015Z,11.30
2022-10-11T02:49:04.928Z,11.20
2022-10-11T02:53:08.787Z,11.10
2022-10-11T02:57:12.304Z,11.10
2022-10-11T03:01:16.966Z,11.00
2022-10-11T03:05:19.405Z,10.90
2022-10-11T03:09:21.982Z,10.80
2022-10-11T03:13:26.556Z,10.80
2022-10-11T03:17:36.852Z,10.70
2022-10-11T03:21:39.280Z,10.70
2022-10-11T03:25:41.514Z,10.70
2022-10-11T03:29:47.114Z,10.70
2022-10-11T03:33:52.550Z,10.70
2022-10-11T03:37:54.800Z,10.70
2022-10-11T03:41:57.826Z,10.60
2022-10-11T03:46:00.175Z,10.50
2022-10-11T03:50:04.541Z,10.40
2022-10-11T03:54:09.894Z,10.30
2022-10-11T03:58:14.519Z,10.30
2022-10-11T04:02:18.046Z,10.30
2022-10-11T04:06:21.791Z,10.20
2022-10-11T04:10:25.953Z,10.20
2022-10-11T04:14:29.651Z,10.20
2022-10-11T04:18:34.211Z,10.20
2022-10-11T04:22:37.819Z,10.20
2022-10-11T04:26:41.775Z,10.20
2022-10-11T04:30:44.739Z,10.20
2022-10-11T04:34:49.158Z,10.20
2022-10-11T04:38:56.529Z,10.20
2022-10-11T04:43:02.582Z,10.10
2022-10-11T04:47:06.695Z,10.20
2022-10-11T04:51:11.832Z,10.10
2022-10-11T04:55:15.611Z,10.20
2022-10-11T04:59:19.542Z,10.10
2022-10-11T05:03:22.277Z,10.10
2022-10-11T05:07:26.661Z,10.10
2022-10-11T05:11:31.221Z,10.10
2022-10-11T05:15:33.703Z,10.10
2022-10-11T05:19:36.040Z,10.10
2022-10-11T05:23:38.550Z,10.20
2022-10-11T05:27:41.925Z,10.20
2022-10-11T05:31:44.551Z,10.20
2022-10-11T05:35:48.481Z,10.40
2022-10-11T05:39:51.188Z,10.40
2022-10-11T05:43:56.186Z,10.60
2022-10-11T05:47:59.726Z,10.60
2022-10-11T05:52:04.536Z,10.70
2022-10-11T05:56:22.728Z,10.80
2022-10-11T06:00:25.503Z,10.90
2022-10-11T06:04:29.301Z,11.00
2022-10-11T06:08:32.361Z,11.20
2022-10-11T06:12:35.904Z,11.30
2022-10-11T06:16:39.003Z,11.40
2022-10-11T06:20:42.792Z,11.50
2022-10-11T06:24:47.526Z,11.60
2022-10-11T06:28:56.023Z,11.70
2022-10-11T06:33:03.758Z,11.80
2022-10-11T06:37:07.362Z,11.90
2022-10-11T06:41:16.626Z,12.10
2022-10-11T06:45:21.591Z,12.20
2022-10-11T06:49:24.017Z,12.30
2022-10-11T06:53:28.321Z,12.40
2022-10-11T06:57:30.757Z,12.60
2022-10-11T07:01:33.611Z,12.70
2022-10-11T07:05:37.677Z,12.80
2022-10-11T07:09:39.899Z,12.80
2022-10-11T07:13:43.792Z,12.90
2022-10-11T07:17:46.361Z,12.90
2022-10-11T07:21:48.534Z,13.00
2022-10-11T07:25:55.248Z,12.90
2022-10-11T07:29:58.181Z,13.00
2022-10-11T07:34:00.563Z,13.00
2022-10-11T07:38:05.829Z,13.00
2022-10-11T07:42:10.115Z,13.00
2022-10-11T07:46:12.708Z,13.10
2022-10-11T07:50:15.801Z,13.20
2022-10-11T07:54:17.943Z,13.20
2022-10-11T07:58:21.801Z,13.30
2022-10-11T08:02:25.729Z,13.50
2022-10-11T08:06:32.993Z,13.60
2022-10-11T08:10:41.287Z,13.70
2022-10-11T08:14:43.407Z,13.80
2022-10-11T08:18:45.966Z,13.70
2022-10-11T08:22:49.625Z,13.90
2022-10-11T08:26:52.033Z,13.90
2022-10-11T08:30:55.538Z,14.10
2022-10-11T08:34:57.711Z,14.20
2022-10-11T08:39:01.551Z,14.40
2022-10-11T08:43:15.464Z,14.40
2022-10-11T08:47:29.577Z,14.50
2022-10-11T08:51:39.538Z,14.60
2022-10-11T08:55:51.153Z,14.70
2022-10-11T08:59:57.677Z,14.60
2022-10-11T09:04:03.923Z,14.80
2022-10-11T09:08:44.346Z,15.00
2022-10-11T09:12:49.695Z,15.20
2022-10-11T09:17:01.138Z,15.00
2022-10-11T09:21:18.428Z,15.00
2022-10-11T09:25:47.053Z,15.10
2022-10-11T09:30:03.329Z,15.30
2022-10-11T09:34:14.699Z,15.10
2022-10-11T09:38:38.414Z,15.20
2022-10-11T09:42:40.516Z,15.10
2022-10-11T09:46:43.752Z,15.20
2022-10-11T09:50:46.740Z,15.50
2022-10-11T09:54:55.757Z,16.00
2022-10-11T09:59:27.903Z,16.40
2022-10-11T10:03:33.542Z,16.50
2022-10-11T10:07:37.431Z,16.50
2022-10-11T10:11:40.797Z,16.20
2022-10-11T10:15:47.131Z,16.10
2022-10-11T10:19:53.386Z,16.10
2022-10-11T10:23:57.976Z,16.00
2022-10-11T10:28:03.648Z,16.00
2022-10-11T10:32:16.631Z,16.10
2022-10-11T10:36:33.441Z,16.10
2022-10-11T10:40:44.341Z,16.20
2022-10-11T10:44:58.858Z,16.30
2022-10-11T10:49:41.555Z,16.20
2022-10-11T10:53:47.513Z,16.20
2022-10-11T10:58:18.464Z,16.20
2022-10-11T11:02:40.918Z,16.10
2022-10-11T11:06:59.673Z,16.10
2022-10-11T11:11:29.456Z,16.00
2022-10-11T11:15:38.211Z,16.00
2022-10-11T11:19:59.809Z,15.80
2022-10-11T11:24:13.511Z,15.80
2022-10-11T11:28:33.831Z,15.90
2022-10-11T11:33:13.454Z,16.00
2022-10-11T11:37:37.302Z,15.90
2022-10-11T11:41:49.106Z,15.90
2022-10-11T11:45:55.595Z,16.00
2022-10-11T11:50:02.981Z,16.00
2022-10-11T11:54:21.790Z,16.20
2022-10-11T11:58:45.497Z,16.20
2022-10-11T12:03:09.969Z,16.10
2022-10-11T12:07:17.305Z,16.00
2022-10-11T12:11:25.605Z,15.90
2022-10-11T12:15:27.817Z,16.00
2022-10-11T12:19:31.511Z,16.10
2022-10-11T12:23:41.336Z,16.10
2022-10-11T12:27:50.979Z,15.90
2022-10-11T12:31:59.260Z,16.00
2022-10-11T12:36:05.682Z,16.00
2022-10-11T12:40:48.459Z,15.70
2022-10-11T12:45:15.092Z,15.50
2022-10-11T12:49:38.333Z,15.40
2022-10-11T12:54:02.499Z,15.20
2022-10-11T12:58:41.684Z,15.10
2022-10-11T13:02:45.079Z,15.20
2022-10-11T13:06:54.067Z,15.30
2022-10-11T13:11:00.158Z,15.20
2022-10-11T13:15:12.658Z,15.10
2022-10-11T13:19:16.016Z,15.20
2022-10-11T13:23:27.642Z,15.40
2022-10-11T13:27:30.099Z,15.30
2022-10-11T13:31:33.332Z,15.30
2022-10-11T13:35:38.336Z,15.30
2022-10-11T13:39:41.915Z,15.10
2022-10-11T13:43:46.507Z,14.90
2022-10-11T13:47:50.506Z,14.80
2022-10-11T13:52:02.024Z,14.70
2022-10-11T13:56:08.236Z,14.60
2022-10-11T14:00:37.840Z,14.60
2022-10-11T14:04:41.867Z,14.50
2022-10-11T14:08:53.244Z,14.30
2022-10-11T14:13:24.143Z,14.10
2022-10-11T14:17:43.996Z,14.10
2022-10-11T14:21:48.674Z,14.10
2022-10-11T14:25:53.422Z,14.10
2022-10-11T14:30:20.264Z,14.00
2022-10-11T14:34:21.965Z,14.00
2022-10-11T14:38:24.772Z,14.10
2022-10-11T14:42:27.196Z,14.00
2022-10-11T14:46:30.470Z,13.90
2022-10-11T14:50:47.187Z,14.00
2022-10-11T14:54:49.269Z,14.00
2022-10-11T14:58:51.473Z,14.00
2022-10-11T15:02:54.182Z,14.00
2022-10-11T15:06:57.684Z,14.10
2022-10-11T15:11:03.429Z,14.20
2022-10-11T15:15:07.109Z,14.10
2022-10-11T15:19:18.888Z,14.00
2022-10-11T15:23:22.268Z,13.90
2022-10-11T15:27:26.038Z,13.90
2022-10-11T15:31:28.062Z,13.80
2022-10-11T15:35:31.609Z,13.80
2022-10-11T15:39:34.004Z,13.80
2022-10-11T15:43:37.106Z,13.70
2022-10-11T15:47:39.443Z,13.70
2022-10-11T15:51:41.835Z,13.60
2022-10-11T15:55:50.584Z,13.60
2022-10-11T15:59:52.675Z,13.60
2022-10-11T16:03:56.425Z,13.50
2022-10-11T16:07:59.895Z,13.50
2022-10-11T16:12:01.995Z,13.40
2022-10-11T16:16:06.660Z,13.30
2022-10-11T16:20:09.359Z,13.20
2022-10-11T16:24:13.319Z,13.10
2022-10-11T16:28:15.582Z,13.00
2022-10-11T16:32:17.669Z,12.90
2022-10-11T16:36:41.096Z,12.80
2022-10-11T16:40:45.127Z,12.70
2022-10-11T16:44:48.636Z,12.60
2022-10-11T16:48:51.892Z,12.60
2022-10-11T16:52:55.739Z,12.60
2022-10-11T16:56:59.698Z,12.60
2022-10-11T17:01:02.185Z,12.60
2022-10-11T17:05:05.366Z,12.60
2022-10-11T17:09:09.456Z,12.60
2022-10-11T17:13:11.719Z,12.60
2022-10-11T17:17:14.546Z,12.60
2022-10-11T17:21:18.920Z,12.60
2022-10-11T17:25:21.982Z,12.60
2022-10-11T17:29:24.309Z,12.60
2022-10-11T17:33:27.727Z,12.50
2022-10-11T17:37:30.046Z,12.40
2022-10-11T17:41:32.588Z,12.30
2022-10-11T17:45:34.768Z,12.30
2022-10-11T17:49:36.743Z,12.30
2022-10-11T17:53:39.280Z,12.30
2022-10-11T17:57:41.394Z,12.30
2022-10-11T18:01:44.295Z,12.30
2022-10-11T18:05:47.838Z,12.30
2022-10-11T18:09:50.184Z,12.30
2022-10-11T18:13:53.496Z,12.30
2022-10-11T18:17:57.829Z,12.30
2022-10-11T18:22:04.403Z,12.30
2022-10-11T18:26:14.774Z,12.30
2022-10-11T18:30:17.152Z,12.30
2022-10-11T18:34:19.205Z,12.30
2022-10-11T18:38:24.364Z,12.20
2022-10-11T18:42:26.693Z,12.20
2022-10-11T18:46:31.926Z,12.20
2022-10-11T18:50:35.799Z,12.20
2022-10-11T18:54:38.144Z,12.10
2022-10-11T18:58:43.578Z,12.10
2022-10-11T19:02:47.401Z,12.00
2022-10-11T19:06:52.885Z,11.90
2022-10-11T19:10:56.148Z,11.80
2022-10-11T19:14:58.511Z,11.80
2022-10-11T19:19:00.709Z,11.70
2022-10-11T19:23:03.945Z,11.70
2022-10-11T19:27:06.763Z,11.70
2022-10-11T19:31:11.772Z,11.60
2022-10-11T19:35:19.021Z,11.60
2022-10-11T19:39:23.106Z,11.60
2022-10-11T19:43:26.733Z,11.50
2022-10-11T19:47:29.205Z,11.50
2022-10-11T19:51:35.381Z,11.40
2022-10-11T19:55:37.488Z,11.40
2022-10-11T19:59:40.546Z,11.40
2022-10-11T20:03:51.018Z,11.30
2022-10-11T20:07:53.149Z,11.30
2022-10-11T20:11:57.059Z,11.20
2022-10-11T20:16:09.478Z,11.20
2022-10-11T20:20:13.500Z,11.10
2022-10-11T20:24:16.865Z,11.10
2022-10-11T20:28:19.536Z,11.00
2022-10-11T20:32:22.208Z,10.90
2022-10-11T20:36:28.270Z,10.80
2022-10-11T20:40:30.715Z,10.80
2022-10-11T20:44:33.529Z,10.80
2022-10-11T20:48:38.994Z,10.70
2022-10-11T20:52:42.859Z,10.70
2022-10-11T20:56:45.042Z,10.70
2022-10-11T21:00:48.107Z,10.70
2022-10-11T21:04:52.963Z,10.70
2022-10-11T21:08:59.827Z,10.70
2022-10-11T21:13:04.851Z,10.60
2022-10-11T21:17:15.206Z,10.60
2022-10-11T21:21:17.579Z,10.60
2022-10-11T21:25:22.065Z,10.60
2022-10-11T21:29:24.919Z,10.60
2022-10-11T21:33:29.499Z,10.70
2022-10-11T21:37:32.491Z,10.60
2022-10-11T21:41:38.487Z,10.60
2022-10-11T21:45:44.793Z,10.60
2022-10-11T21:49:46.945Z,10.50
2022-10-11T21:53:51.356Z,10.50
2022-10-11T21:57:56.026Z,10.40
2022-10-11T22:02:02.108Z,10.40
2022-10-11T22:06:30.539Z,10.30
2022-10-11T22:10:36.119Z,10.40
2022-10-11T22:14:38.375Z,10.40
2022-10-11T22:18:41.711Z,10.30
2022-10-11T22:22:43.681Z,10.30
2022-10-11T22:26:47.099Z,10.30
2022-10-11T22:30:50.639Z,10.30
2022-10-11T22:34:53.264Z,10.30
2022-10-11T22:38:58.887Z,10.20
2022-10-11T22:43:01.081Z,10.20
2022-10-11T22:47:04.522Z,10.20
2022-10-11T22:51:10.764Z,10.20
2022-10-11T22:55:19.954Z,10.10
2022-10-11T22:59:27.080Z,10.00
2022-10-11T23:03:35.124Z,10.00
2022-10-11T23:07:52.331Z,9.90
2022-10-11T23:11:59.258Z,9.80
2022-10-11T23:16:12.791Z,9.80
2022-10-11T23:24:35.758Z,9.70
2022-10-11T23:28:40.813Z,9.70
2022-10-11T23:32:43.137Z,9.60
2022-10-11T23:36:46.218Z,9.60
2022-10-11T23:40:52.013Z,9.50
2022-10-11T23:44:55.041Z,9.50
2022-10-11T23:48:58.896Z,9.40
2022-10-11T23:53:04.096Z,9.30
2022-10-11T23:57:09.263Z,9.30
